Terminal Aerodrome Forecast
Issued by NWS Wakefield, VA

Home | Current Version | Previous Version | Text Only | Print | Product List | Glossary On
Versions: 1 2 3 4 5 6 7 8 9 10 11 12 13 14 15 16 17 18 19 20 21 22
000
FTUS41 KAKQ 230500
TAFRIC
TAF
KRIC 230536Z 2306/2406 VRB03KT P6SM SCT250
     FM231000 20003KT 5SM BR SCT005 SCT250
     FM231300 22006KT P6SM SCT060 SCT250
     FM232000 22009KT P6SM VCSH BKN060 BKN250=

USA.gov is the U.S. government's official web portal to all federal, state and local government web resources and services.